Time;durP1;ratioP1;P1;durP2;ratioP2;P2;SDS_P1;SDS_P2;PMS_P1;PMS_P2;Temp;Humidity;BMP_temperature;BMP_pressure;BME280_temperature;BME280_humidity;BME280_pressure;Samples;Min_cycle;Max_cycle;Signal;HPM_P1;HPM_P2
2023/12/08 00:01:10;;;;;;;339.07;77.77;;;-1.40;99.90;;;;;;4441556;27;662335;-74
2023/12/08 00:03:57;;;;;;;324.90;74.80;;;-1.50;99.90;;;;;;4459306;27;661585;-73
2023/12/08 00:06:44;;;;;;;329.80;78.10;;;-1.50;99.90;;;;;;4444643;27;662801;-74
2023/12/08 00:09:31;;;;;;;314.27;77.07;;;-1.50;99.90;;;;;;4455397;27;661889;-73
2023/12/08 00:12:19;;;;;;;315.33;74.20;;;-1.50;99.90;;;;;;4426785;27;661917;-72
2023/12/08 00:15:07;;;;;;;302.23;74.80;;;-1.50;99.90;;;;;;4459096;27;661850;-72
2023/12/08 00:17:55;;;;;;;294.77;71.30;;;-1.60;99.90;;;;;;4423538;28;662291;-72
2023/12/08 00:20:43;;;;;;;306.80;75.20;;;-1.60;99.90;;;;;;4427595;28;662041;-72
2023/12/08 00:23:30;;;;;;;285.87;70.80;;;-1.50;99.90;;;;;;4456959;27;662098;-71
2023/12/08 00:26:17;;;;;;;311.30;73.00;;;-1.50;99.90;;;;;;4442847;28;661910;-71
2023/12/08 00:29:05;;;;;;;298.07;73.33;;;-1.50;99.90;;;;;;4456590;28;663074;-72
2023/12/08 00:31:52;;;;;;;308.90;72.63;;;-1.50;99.90;;;;;;4449727;28;661478;-71
2023/12/08 00:34:41;;;;;;;329.73;74.30;;;-1.50;99.90;;;;;;4448772;27;662452;-72
2023/12/08 00:37:28;;;;;;;340.38;74.07;;;-1.50;99.90;;;;;;4416407;28;661952;-72
2023/12/08 00:40:17;;;;;;;296.67;72.50;;;-1.50;99.90;;;;;;4441711;28;662255;-72
2023/12/08 00:43:04;;;;;;;336.07;74.83;;;-1.50;99.90;;;;;;4423855;28;662233;-72
2023/12/08 00:45:51;;;;;;;388.13;79.45;;;-1.60;99.90;;;;;;4448548;28;661127;-72
2023/12/08 00:48:38;;;;;;;359.13;82.20;;;-1.50;99.90;;;;;;4425107;28;662199;-72
2023/12/08 00:51:27;;;;;;;350.88;79.03;;;-1.50;99.90;;;;;;4450667;28;662451;-72
2023/12/08 00:54:15;;;;;;;391.80;80.00;;;-1.50;99.90;;;;;;4427470;27;663429;-72
2023/12/08 00:57:03;;;;;;;414.40;86.13;;;-1.50;99.90;;;;;;4447454;28;661619;-71
2023/12/08 00:59:50;;;;;;;401.47;84.40;;;-1.50;99.90;;;;;;4456080;28;662416;-72
2023/12/08 01:02:37;;;;;;;402.40;85.27;;;-1.50;99.90;;;;;;4431065;28;662150;-72
2023/12/08 01:05:25;;;;;;;384.33;81.83;;;-1.50;99.90;;;;;;4449907;28;662522;-72
2023/12/08 01:08:13;;;;;;;382.30;77.90;;;-1.40;99.90;;;;;;4443248;28;661271;-72
2023/12/08 01:11:00;;;;;;;422.80;84.60;;;-1.30;99.90;;;;;;4425813;27;663159;-72
2023/12/08 01:13:48;;;;;;;365.00;76.53;;;-1.40;99.90;;;;;;4437192;27;661611;-72
2023/12/08 01:16:39;;;;;;;341.63;72.23;;;-1.40;99.90;;;;;;4454873;27;662654;-72
2023/12/08 01:19:27;;;;;;;344.13;73.90;;;-1.30;99.90;;;;;;4435185;28;661986;-72
2023/12/08 01:22:14;;;;;;;319.07;72.00;;;-1.40;99.90;;;;;;4426586;27;662490;-71
2023/12/08 01:25:03;;;;;;;346.90;74.90;;;-1.30;99.90;;;;;;4466140;27;662186;-73
2023/12/08 01:27:50;;;;;;;347.53;74.13;;;-1.40;99.90;;;;;;4429709;27;663664;-74
2023/12/08 01:30:37;;;;;;;321.60;72.55;;;-1.40;99.90;;;;;;4437548;27;661999;-71
2023/12/08 01:33:25;;;;;;;343.70;74.03;;;-1.30;99.90;;;;;;4452555;28;663140;-72
2023/12/08 01:36:12;;;;;;;322.33;71.97;;;-1.40;99.90;;;;;;4448040;27;661992;-72
2023/12/08 01:38:59;;;;;;;343.10;72.73;;;-1.40;99.90;;;;;;4422874;28;662591;-72
2023/12/08 01:41:51;;;;;;;313.63;70.57;;;-1.40;99.90;;;;;;4446521;28;661205;-72
2023/12/08 01:44:39;;;;;;;324.25;72.63;;;-1.40;99.90;;;;;;4391989;28;661994;-72
2023/12/08 01:47:26;;;;;;;314.67;72.67;;;-1.50;99.90;;;;;;4448811;28;661797;-72
2023/12/08 01:50:13;;;;;;;315.63;70.47;;;-1.40;99.90;;;;;;4424847;28;661599;-72
2023/12/08 01:53:00;;;;;;;303.10;71.17;;;-1.40;99.90;;;;;;4446654;28;662537;-72
2023/12/08 01:55:47;;;;;;;318.15;68.70;;;-1.40;99.90;;;;;;4431855;28;661550;-72
2023/12/08 01:58:36;;;;;;;305.97;69.27;;;-1.40;99.90;;;;;;4455951;28;662056;-72
2023/12/08 02:01:23;;;;;;;320.53;70.70;;;-1.40;99.90;;;;;;4429439;28;661931;-72
2023/12/08 02:04:10;;;;;;;338.10;67.93;;;-1.40;99.90;;;;;;4460062;28;662378;-72
2023/12/08 02:06:58;;;;;;;372.83;85.17;;;-1.40;99.90;;;;;;4427274;28;661641;-71
2023/12/08 02:09:45;;;;;;;330.60;73.30;;;-1.30;99.90;;;;;;4459851;27;661897;-71
2023/12/08 02:12:32;;;;;;;366.65;77.85;;;-1.30;99.90;;;;;;4440937;27;662865;-71
2023/12/08 02:15:21;;;;;;;346.00;73.60;;;-1.40;99.90;;;;;;4445233;27;662177;-72
2023/12/08 02:18:08;;;;;;;380.13;81.77;;;-1.40;99.90;;;;;;4432857;28;661745;-71
2023/12/08 02:20:56;;;;;;;359.05;75.50;;;-1.40;99.90;;;;;;4448160;27;662507;-71
2023/12/08 02:23:46;;;;;;;329.63;66.10;;;-1.40;99.90;;;;;;4422025;28;663247;-71
2023/12/08 02:26:33;;;;;;;322.40;67.35;;;-1.30;99.90;;;;;;4434726;27;661455;-72
2023/12/08 02:29:21;;;;;;;318.13;66.47;;;-1.30;99.90;;;;;;4447813;27;662130;-72
2023/12/08 02:32:11;;;;;;;323.73;71.00;;;-1.30;99.90;;;;;;4432588;28;661838;-72
2023/12/08 02:35:01;;;;;;;296.10;66.03;;;-1.40;99.90;;;;;;4439593;27;662480;-71
2023/12/08 02:37:49;;;;;;;280.20;60.87;;;-1.40;99.90;;;;;;4439547;27;662380;-72
2023/12/08 02:40:37;;;;;;;282.53;60.83;;;-1.40;99.90;;;;;;4448647;28;661815;-72
2023/12/08 02:43:24;;;;;;;253.40;57.63;;;-1.40;99.90;;;;;;4433886;27;662209;-72
2023/12/08 02:46:11;;;;;;;249.00;54.43;;;-1.40;99.90;;;;;;4446030;28;661511;-71
2023/12/08 02:48:59;;;;;;;257.20;57.27;;;-1.40;99.90;;;;;;4423671;28;661764;-72
2023/12/08 02:51:46;;;;;;;249.20;56.97;;;-1.40;99.90;;;;;;4449168;28;662337;-72
2023/12/08 02:54:33;;;;;;;257.70;57.77;;;-1.40;99.90;;;;;;4436410;28;661553;-72
2023/12/08 02:57:22;;;;;;;245.87;55.53;;;-1.40;99.90;;;;;;4456108;28;661876;-72
2023/12/08 03:00:10;;;;;;;241.70;57.20;;;-1.40;99.90;;;;;;4425360;28;662808;-71
2023/12/08 03:02:58;;;;;;;259.30;57.13;;;-1.50;99.90;;;;;;4428150;28;662096;-72
2023/12/08 03:05:45;;;;;;;245.10;56.57;;;-1.50;99.90;;;;;;4445322;28;663300;-72
2023/12/08 03:08:33;;;;;;;249.40;55.50;;;-1.50;99.90;;;;;;4451470;27;662071;-72
2023/12/08 03:11:20;;;;;;;245.00;54.77;;;-1.50;99.90;;;;;;4461857;27;662457;-71
2023/12/08 03:14:09;;;;;;;238.93;55.42;;;-1.50;99.90;;;;;;4439168;28;662431;-72
2023/12/08 03:16:56;;;;;;;230.03;53.80;;;-1.40;99.90;;;;;;4468364;27;661643;-71
2023/12/08 03:19:43;;;;;;;239.65;55.55;;;-1.50;99.90;;;;;;4432771;27;662852;-73
2023/12/08 03:22:30;;;;;;;205.27;52.63;;;-1.40;99.90;;;;;;4454549;27;663054;-73
2023/12/08 03:25:17;;;;;;;229.18;54.25;;;-1.40;99.90;;;;;;4434878;28;661707;-73
2023/12/08 03:28:05;;;;;;;205.37;50.53;;;-1.50;99.90;;;;;;4452493;28;662895;-73
2023/12/08 03:30:53;;;;;;;197.23;49.13;;;-1.40;99.90;;;;;;4448869;27;661936;-74
2023/12/08 03:33:40;;;;;;;180.90;44.27;;;-1.50;99.90;;;;;;4428560;27;662498;-74
2023/12/08 03:36:27;;;;;;;162.13;42.77;;;-1.40;99.90;;;;;;4437540;27;661907;-73
2023/12/08 03:39:15;;;;;;;178.77;44.90;;;-1.40;99.90;;;;;;4460488;27;662133;-74
2023/12/08 03:42:03;;;;;;;166.60;43.43;;;-1.40;99.90;;;;;;4456037;28;661387;-73
2023/12/08 03:44:50;;;;;;;158.13;43.47;;;-1.30;99.90;;;;;;4454550;27;662612;-74
2023/12/08 03:47:39;;;;;;;178.47;44.47;;;-1.50;99.90;;;;;;4432659;27;661924;-73
2023/12/08 03:50:26;;;;;;;183.90;46.67;;;-1.50;99.90;;;;;;4446555;28;662085;-73
2023/12/08 03:53:13;;;;;;;167.70;44.17;;;-1.50;99.90;;;;;;4437933;27;661862;-73
2023/12/08 03:56:00;;;;;;;183.47;44.17;;;-1.50;99.90;;;;;;4453908;28;662238;-73
2023/12/08 03:58:48;;;;;;;181.40;43.40;;;-1.50;99.90;;;;;;4435742;27;662100;-74
2023/12/08 04:01:35;;;;;;;168.90;43.57;;;-1.50;99.90;;;;;;4458397;27;663227;-73
2023/12/08 04:04:24;;;;;;;169.33;43.67;;;-1.50;99.90;;;;;;4445673;28;661626;-73
2023/12/08 04:07:11;;;;;;;167.03;42.60;;;-1.50;99.90;;;;;;4459404;28;661773;-73
2023/12/08 04:09:58;;;;;;;157.00;42.70;;;-1.50;99.90;;;;;;4433210;27;662461;-74
2023/12/08 04:12:45;;;;;;;163.10;44.63;;;-1.40;99.90;;;;;;4461140;27;661399;-73
2023/12/08 04:15:33;;;;;;;145.80;42.03;;;-1.40;99.90;;;;;;4425522;28;662597;-73
2023/12/08 04:18:20;;;;;;;161.90;45.00;;;-1.40;99.90;;;;;;4466522;27;662438;-73
2023/12/08 04:21:09;;;;;;;150.57;42.03;;;-1.40;99.90;;;;;;4428519;27;662246;-74
2023/12/08 04:23:56;;;;;;;129.43;36.27;;;-1.30;99.90;;;;;;4459864;27;661920;-73
2023/12/08 04:26:44;;;;;;;134.10;40.93;;;-1.30;99.90;;;;;;4424935;28;662632;-73
2023/12/08 04:29:31;;;;;;;121.87;35.50;;;-1.30;99.90;;;;;;4453816;27;662538;-73
2023/12/08 04:32:18;;;;;;;103.40;33.23;;;-1.30;99.90;;;;;;4445474;27;662127;-73
2023/12/08 04:35:06;;;;;;;111.53;33.50;;;-1.30;99.90;;;;;;4459388;27;661665;-73
2023/12/08 04:37:54;;;;;;;110.07;33.03;;;-1.30;99.90;;;;;;4440351;27;661620;-73
2023/12/08 04:40:42;;;;;;;112.13;32.40;;;-1.30;99.90;;;;;;4454355;27;662092;-73
2023/12/08 04:43:29;;;;;;;113.50;32.37;;;-1.30;99.90;;;;;;4438284;27;662750;-73
2023/12/08 04:46:17;;;;;;;126.90;33.57;;;-1.30;99.90;;;;;;4441928;28;661973;-73
2023/12/08 04:49:05;;;;;;;138.77;37.03;;;-1.40;99.90;;;;;;4413100;28;662527;-73
2023/12/08 04:51:52;;;;;;;139.63;38.20;;;-1.40;99.90;;;;;;4447965;28;662330;-73
2023/12/08 04:54:41;;;;;;;137.40;38.92;;;-1.40;99.90;;;;;;4413914;28;662568;-73
2023/12/08 04:57:28;;;;;;;123.50;33.07;;;-1.40;99.90;;;;;;4436009;28;661764;-73
2023/12/08 05:00:16;;;;;;;161.60;40.37;;;-1.40;99.90;;;;;;4459940;27;662140;-73
2023/12/08 05:03:04;;;;;;;157.15;40.10;;;-1.30;99.90;;;;;;4438956;28;662273;-73
2023/12/08 05:05:51;;;;;;;114.37;30.43;;;-1.40;99.90;;;;;;4454383;28;661574;-73
2023/12/08 05:08:38;;;;;;;156.17;39.13;;;-1.50;99.90;;;;;;4432812;28;662259;-73
2023/12/08 05:11:27;;;;;;;175.02;42.40;;;-1.50;99.90;;;;;;4446957;28;662653;-73
2023/12/08 05:14:14;;;;;;;173.20;41.57;;;-1.50;99.90;;;;;;4435701;28;662636;-73
2023/12/08 05:17:02;;;;;;;156.25;42.20;;;-1.60;99.90;;;;;;4449860;28;662328;-73
2023/12/08 05:19:49;;;;;;;155.90;39.87;;;-1.60;99.90;;;;;;4428329;27;662333;-73
2023/12/08 05:22:37;;;;;;;182.93;43.97;;;-1.60;99.90;;;;;;4446362;28;661744;-73
2023/12/08 05:25:24;;;;;;;167.43;40.63;;;-1.60;99.90;;;;;;4428485;27;661698;-72
2023/12/08 05:28:12;;;;;;;158.97;36.67;;;-1.70;99.90;;;;;;4446178;27;662130;-73
2023/12/08 05:31:00;;;;;;;168.23;40.78;;;-1.70;99.90;;;;;;4430697;27;662160;-73
2023/12/08 05:33:47;;;;;;;184.30;38.40;;;-1.80;99.90;;;;;;4454907;27;661199;-73
2023/12/08 05:36:34;;;;;;;173.57;38.97;;;-1.80;99.90;;;;;;4425522;27;663292;-72
2023/12/08 05:39:21;;;;;;;208.80;43.00;;;-1.80;99.90;;;;;;4452974;28;662030;-73
2023/12/08 05:42:08;;;;;;;183.93;42.13;;;-1.80;99.90;;;;;;4434570;27;662671;-73
2023/12/08 05:44:57;;;;;;;191.93;41.97;;;-1.90;99.90;;;;;;4452013;27;662305;-73
2023/12/08 05:47:44;;;;;;;185.90;43.70;;;-1.80;99.90;;;;;;4431610;27;662964;-73
2023/12/08 05:50:31;;;;;;;187.17;41.53;;;-1.80;99.90;;;;;;4454689;28;662944;-73
2023/12/08 05:53:19;;;;;;;144.13;35.08;;;-1.80;99.90;;;;;;4419369;28;662116;-72
2023/12/08 05:56:07;;;;;;;182.23;43.33;;;-1.80;99.90;;;;;;4449964;28;661536;-73
2023/12/08 05:58:54;;;;;;;174.63;36.53;;;-1.80;99.90;;;;;;4435827;27;662090;-73
2023/12/08 06:01:42;;;;;;;135.77;34.90;;;-1.90;99.90;;;;;;4446754;28;662293;-73
2023/12/08 06:04:29;;;;;;;162.00;38.45;;;-1.90;99.90;;;;;;4424758;28;662386;-73
2023/12/08 06:07:17;;;;;;;148.77;33.73;;;-2.00;99.90;;;;;;4453545;27;662130;-73
2023/12/08 06:10:05;;;;;;;183.07;35.50;;;-2.00;99.90;;;;;;4432338;28;662140;-73
2023/12/08 06:12:52;;;;;;;143.20;34.77;;;-2.10;99.90;;;;;;4460624;28;661604;-73
2023/12/08 06:15:39;;;;;;;154.40;38.10;;;-2.10;99.90;;;;;;4421996;27;662237;-73
2023/12/08 06:18:28;;;;;;;156.27;32.57;;;-2.10;99.90;;;;;;4457337;27;661444;-73
2023/12/08 06:21:15;;;;;;;165.07;39.40;;;-2.20;99.90;;;;;;4429921;28;662460;-73
2023/12/08 06:24:02;;;;;;;177.47;34.30;;;-2.20;99.90;;;;;;4436327;28;661472;-73
2023/12/08 06:26:50;;;;;;;136.37;30.33;;;-2.10;99.90;;;;;;4448478;28;662949;-70
2023/12/08 06:29:37;;;;;;;157.80;32.00;;;-2.10;99.90;;;;;;4448748;28;661556;-70
2023/12/08 06:32:25;;;;;;;196.87;40.00;;;-2.10;99.90;;;;;;4433852;28;662204;-71
2023/12/08 06:35:14;;;;;;;170.43;37.75;;;-2.00;99.90;;;;;;4441543;28;662372;-70
2023/12/08 06:38:02;;;;;;;193.53;42.13;;;-2.10;99.90;;;;;;4458745;28;662134;-70
2023/12/08 06:40:49;;;;;;;177.90;40.73;;;-2.10;99.90;;;;;;4426912;28;663015;-70
2023/12/08 06:43:36;;;;;;;187.80;42.57;;;-2.10;99.90;;;;;;4451067;28;662635;-70
2023/12/08 06:46:23;;;;;;;190.90;41.23;;;-2.10;99.90;;;;;;4425649;28;662453;-70
2023/12/08 06:49:10;;;;;;;147.38;36.92;;;-2.10;99.90;;;;;;4447734;28;663034;-70
2023/12/08 06:51:59;;;;;;;156.70;34.23;;;-2.00;99.90;;;;;;4431307;28;662120;-70
2023/12/08 06:54:46;;;;;;;214.43;43.43;;;-2.00;99.90;;;;;;4456476;28;661560;-71
2023/12/08 06:57:33;;;;;;;158.13;37.33;;;-2.10;99.90;;;;;;4436698;28;661697;-71
2023/12/08 07:00:21;;;;;;;204.37;44.97;;;-2.10;99.90;;;;;;4460282;28;663326;-71
2023/12/08 07:03:08;;;;;;;182.30;43.03;;;-2.10;99.90;;;;;;4422034;28;661954;-71
2023/12/08 07:05:55;;;;;;;194.63;41.87;;;-2.10;99.90;;;;;;4455490;28;662526;-70
2023/12/08 07:08:44;;;;;;;177.18;41.80;;;-2.00;99.90;;;;;;4417461;28;662608;-70
2023/12/08 07:11:33;;;;;;;194.13;42.73;;;-2.00;99.90;;;;;;4421129;28;661537;-70
2023/12/08 07:14:22;;;;;;;188.00;42.10;;;-2.00;99.90;;;;;;4449692;28;662064;-70
2023/12/08 07:17:09;;;;;;;211.67;38.37;;;-2.00;99.90;;;;;;4431096;28;662433;-70
2023/12/08 07:19:56;;;;;;;169.07;39.17;;;-1.90;99.90;;;;;;4456205;28;661647;-70
2023/12/08 07:22:43;;;;;;;140.87;35.57;;;-1.90;99.90;;;;;;4431974;28;661744;-70
2023/12/08 07:25:32;;;;;;;147.17;30.17;;;-1.90;99.90;;;;;;4443664;28;662984;-70
2023/12/08 07:28:20;;;;;;;130.15;31.70;;;-2.00;99.90;;;;;;4426777;28;662475;-70
2023/12/08 07:31:08;;;;;;;133.90;31.03;;;-2.00;99.90;;;;;;4444612;28;661894;-70
2023/12/08 07:33:56;;;;;;;165.27;37.20;;;-2.10;99.90;;;;;;4429672;28;662293;-71
2023/12/08 07:36:43;;;;;;;112.23;27.60;;;-2.00;99.90;;;;;;4425211;28;661782;-70
2023/12/08 07:39:30;;;;;;;130.67;34.77;;;-1.90;99.90;;;;;;4452932;28;662312;-70
2023/12/08 07:42:19;;;;;;;134.87;31.50;;;-1.90;99.90;;;;;;4431116;28;662186;-71
2023/12/08 07:45:08;;;;;;;107.77;30.27;;;-1.90;99.90;;;;;;4453371;28;661582;-70
2023/12/08 07:47:55;;;;;;;104.17;29.03;;;-1.90;99.90;;;;;;4428674;28;662185;-70
2023/12/08 07:50:42;;;;;;;127.45;33.78;;;-1.90;99.90;;;;;;4430336;28;662111;-70
2023/12/08 07:53:30;;;;;;;130.53;31.77;;;-1.90;99.90;;;;;;4449032;28;662467;-70
2023/12/08 07:56:17;;;;;;;130.53;31.73;;;-1.90;99.90;;;;;;4454315;27;661474;-70
2023/12/08 07:59:06;;;;;;;128.67;34.07;;;-2.00;99.90;;;;;;4429648;27;662226;-70
2023/12/08 08:01:53;;;;;;;130.93;33.27;;;-1.90;99.90;;;;;;4432293;27;661932;-70
2023/12/08 08:04:41;;;;;;;100.07;25.90;;;-1.80;99.90;;;;;;4456393;27;662291;-70
2023/12/08 08:07:28;;;;;;;133.80;33.00;;;-1.60;99.90;;;;;;4435749;28;663493;-70
2023/12/08 08:10:16;;;;;;;97.28;28.30;;;-1.60;99.90;;;;;;4460839;27;662796;-70
2023/12/08 08:13:03;;;;;;;88.70;27.23;;;-1.60;99.90;;;;;;4435566;27;660738;-70
2023/12/08 08:15:51;;;;;;;96.10;25.93;;;-1.60;99.90;;;;;;4455017;28;660936;-70
2023/12/08 08:18:39;;;;;;;84.03;24.33;;;-1.50;99.90;;;;;;4429263;27;661176;-70
2023/12/08 08:21:26;;;;;;;111.73;28.57;;;-1.50;99.90;;;;;;4463133;27;661235;-70
2023/12/08 08:24:13;;;;;;;57.60;18.43;;;-1.50;99.90;;;;;;4433490;28;662347;-70
2023/12/08 08:27:01;;;;;;;79.87;21.37;;;-1.40;99.90;;;;;;4458696;27;661600;-70
2023/12/08 08:29:48;;;;;;;75.53;22.00;;;-1.40;99.90;;;;;;4432512;27;660553;-70
2023/12/08 08:32:36;;;;;;;82.87;24.03;;;-1.60;99.90;;;;;;4455501;28;661968;-70
2023/12/08 08:35:23;;;;;;;59.25;19.23;;;-1.50;99.90;;;;;;4439093;27;660849;-70
2023/12/08 08:38:11;;;;;;;66.13;19.47;;;-1.50;99.90;;;;;;4448294;28;661479;-70
2023/12/08 08:40:59;;;;;;;80.53;23.83;;;-1.50;99.90;;;;;;4433865;27;660254;-70
2023/12/08 08:43:46;;;;;;;68.63;18.77;;;-1.50;99.90;;;;;;4453374;27;660846;-70
2023/12/08 08:46:33;;;;;;;81.93;25.43;;;-1.50;99.90;;;;;;4437428;27;661025;-70
2023/12/08 08:49:22;;;;;;;58.37;18.83;;;-1.30;99.90;;;;;;4443615;27;660921;-70
2023/12/08 08:52:09;;;;;;;83.37;22.80;;;-1.30;99.90;;;;;;4424190;28;661508;-70
2023/12/08 08:54:56;;;;;;;74.23;22.10;;;-1.20;99.90;;;;;;4458045;28;661292;-70
2023/12/08 08:57:44;;;;;;;77.10;24.40;;;-1.10;99.90;;;;;;4430188;28;661095;-70
2023/12/08 09:00:31;;;;;;;83.83;19.63;;;-1.10;99.90;;;;;;4457302;28;660832;-70
2023/12/08 09:03:18;;;;;;;61.88;20.05;;;-1.10;99.90;;;;;;4436597;27;660661;-70
2023/12/08 09:06:07;;;;;;;49.05;16.25;;;-1.00;99.90;;;;;;4452053;28;661152;-70
2023/12/08 09:08:54;;;;;;;65.40;21.90;;;-1.10;99.90;;;;;;4424678;27;662183;-70
2023/12/08 09:11:41;;;;;;;66.80;20.10;;;-1.30;99.90;;;;;;4450410;27;661511;-70
2023/12/08 09:14:28;;;;;;;67.07;24.03;;;-1.20;99.90;;;;;;4434424;28;661499;-70
2023/12/08 09:17:16;;;;;;;88.90;27.73;;;-1.10;99.90;;;;;;4453984;27;660582;-70
2023/12/08 09:20:07;;;;;;;84.90;27.17;;;-0.90;99.90;;;;;;4429952;28;660313;-70
2023/12/08 09:22:56;;;;;;;88.25;26.15;;;-0.80;99.90;;;;;;4431306;27;661265;-70
2023/12/08 09:25:43;;;;;;;68.57;23.67;;;-0.80;99.90;;;;;;4429205;27;661275;-70
2023/12/08 09:28:30;;;;;;;73.33;24.87;;;-0.90;99.90;;;;;;4449260;27;661912;-70
2023/12/08 09:31:17;;;;;;;66.13;21.50;;;-0.80;99.90;;;;;;4427495;28;660633;-70
2023/12/08 09:34:05;;;;;;;72.97;25.23;;;-0.80;99.90;;;;;;4452133;27;663908;-70
2023/12/08 09:36:53;;;;;;;74.17;25.10;;;-0.80;99.90;;;;;;4448788;28;660719;-70
2023/12/08 09:39:41;;;;;;;86.00;26.03;;;-0.70;99.90;;;;;;4449118;28;661689;-70
2023/12/08 09:42:31;;;;;;;71.40;23.87;;;-0.70;99.90;;;;;;4436199;27;661190;-70
2023/12/08 09:45:19;;;;;;;54.80;18.87;;;-0.70;99.90;;;;;;4436334;27;660779;-71
2023/12/08 09:48:07;;;;;;;81.63;26.23;;;-0.90;99.90;;;;;;4449833;27;660939;-70
2023/12/08 09:50:54;;;;;;;66.97;21.60;;;-0.80;99.90;;;;;;4429662;27;660468;-70
2023/12/08 09:53:41;;;;;;;99.77;28.97;;;-1.00;99.90;;;;;;4458363;27;661430;-71
2023/12/08 09:56:30;;;;;;;80.73;26.27;;;-1.00;99.90;;;;;;4436521;27;661459;-70
2023/12/08 09:59:17;;;;;;;84.23;24.97;;;-0.80;99.90;;;;;;4455338;28;660131;-70
2023/12/08 10:02:04;;;;;;;84.50;24.90;;;-0.80;99.90;;;;;;4425640;27;661165;-70
2023/12/08 10:04:51;;;;;;;85.00;26.50;;;-0.70;99.90;;;;;;4463385;27;660598;-71
2023/12/08 10:07:39;;;;;;;85.63;29.27;;;-0.70;99.90;;;;;;4437547;27;661136;-70
2023/12/08 10:10:26;;;;;;;92.10;28.08;;;-0.50;99.90;;;;;;4455997;27;660771;-71
2023/12/08 10:13:15;;;;;;;91.43;31.07;;;-0.50;99.90;;;;;;4430164;28;661141;-70
2023/12/08 10:16:03;;;;;;;94.28;31.33;;;-0.40;99.90;;;;;;4436988;28;660741;-70
2023/12/08 10:18:50;;;;;;;100.53;33.80;;;-0.30;99.90;;;;;;4457993;28;661026;-71
2023/12/08 10:21:37;;;;;;;87.10;29.08;;;-0.20;99.90;;;;;;4440189;28;662159;-70
2023/12/08 10:24:25;;;;;;;81.33;26.10;;;-0.40;99.90;;;;;;4461352;27;661379;-70
2023/12/08 10:27:12;;;;;;;82.07;27.07;;;-0.40;99.90;;;;;;4441320;28;661351;-70
2023/12/08 10:30:03;;;;;;;93.03;31.20;;;-0.50;99.90;;;;;;4421230;28;662140;-71
2023/12/08 10:32:50;;;;;;;86.20;28.90;;;-0.50;99.90;;;;;;4419598;28;660661;-70
2023/12/08 10:35:39;;;;;;;95.40;30.58;;;-0.50;99.90;;;;;;4437581;28;660663;-71
2023/12/08 10:38:26;;;;;;;103.93;33.17;;;-0.50;99.90;;;;;;4439650;28;660639;-71
2023/12/08 10:41:14;;;;;;;96.43;31.07;;;-0.40;99.90;;;;;;4424336;27;661858;-70
2023/12/08 10:44:02;;;;;;;99.43;34.53;;;-0.30;99.90;;;;;;4446608;28;660788;-70
2023/12/08 10:46:51;;;;;;;104.88;33.88;;;-0.30;99.90;;;;;;4429952;28;661099;-71
2023/12/08 10:49:39;;;;;;;101.03;34.03;;;-0.30;99.90;;;;;;4416109;28;662229;-70
2023/12/08 10:52:26;;;;;;;113.13;38.73;;;-0.30;99.90;;;;;;4451807;28;661758;-71
2023/12/08 10:55:13;;;;;;;101.13;36.80;;;-0.30;99.90;;;;;;4428272;28;662473;-71
2023/12/08 10:58:01;;;;;;;107.03;35.67;;;-0.20;99.90;;;;;;4455570;28;662225;-71
2023/12/08 11:00:48;;;;;;;103.37;37.10;;;-0.20;99.90;;;;;;4432278;28;662364;-71
2023/12/08 11:03:36;;;;;;;107.63;36.90;;;-0.20;99.90;;;;;;4453234;28;661888;-71
2023/12/08 11:06:25;;;;;;;91.70;29.73;;;-0.30;99.90;;;;;;4433642;28;661458;-71
2023/12/08 11:09:13;;;;;;;103.87;33.23;;;-0.30;99.90;;;;;;4439833;28;661005;-71
2023/12/08 11:12:03;;;;;;;85.57;31.90;;;-0.30;99.90;;;;;;4454655;28;662113;-71
2023/12/08 11:14:53;;;;;;;100.17;32.93;;;-0.30;99.90;;;;;;4457151;28;661878;-71
2023/12/08 11:17:43;;;;;;;93.05;30.90;;;-0.30;99.90;;;;;;4415007;28;663492;-71
2023/12/08 11:20:31;;;;;;;94.67;33.17;;;-0.30;99.90;;;;;;4427079;28;661066;-70
2023/12/08 11:23:19;;;;;;;100.60;33.22;;;-0.30;99.90;;;;;;4426453;28;661534;-70
2023/12/08 11:26:12;;;;;;;84.73;31.63;;;-0.20;99.90;;;;;;4431637;28;661870;-70
2023/12/08 11:29:03;;;;;;;82.43;30.87;;;-0.30;99.90;;;;;;4430877;27;662016;-71
2023/12/08 11:31:54;;;;;;;91.40;31.07;;;-0.20;99.90;;;;;;4432924;27;661637;-70
2023/12/08 11:34:49;;;;;;;98.70;32.30;;;-0.40;99.90;;;;;;4429743;27;661658;-70
2023/12/08 11:37:37;;;;;;;97.23;32.87;;;-0.40;99.90;;;;;;4431728;27;661464;-71
2023/12/08 11:40:25;;;;;;;97.33;32.60;;;-0.10;99.90;;;;;;4433876;28;661744;-71
2023/12/08 11:43:12;;;;;;;103.23;31.47;;;-0.10;99.90;;;;;;4461389;28;660847;-71
2023/12/08 11:45:59;;;;;;;96.87;30.37;;;0.00;99.90;;;;;;4436014;28;662390;-71
2023/12/08 11:48:48;;;;;;;91.60;31.37;;;-0.10;99.90;;;;;;4447760;28;659535;-71
2023/12/08 11:51:37;;;;;;;89.93;28.40;;;-0.10;99.90;;;;;;4432265;28;662113;-71
2023/12/08 11:54:26;;;;;;;79.67;27.27;;;-0.40;99.90;;;;;;4440813;28;661333;-70
2023/12/08 11:57:13;;;;;;;70.87;23.57;;;-0.40;99.90;;;;;;4437294;28;661145;-70
2023/12/08 12:00:00;;;;;;;69.27;26.30;;;-0.30;99.90;;;;;;4465111;28;661718;-71
2023/12/08 12:02:48;;;;;;;73.83;25.43;;;-0.30;99.90;;;;;;4433391;27;660924;-71
2023/12/08 12:05:38;;;;;;;77.17;26.43;;;-0.30;99.90;;;;;;4460492;28;662289;-71
2023/12/08 12:08:26;;;;;;;83.80;26.60;;;-0.40;99.90;;;;;;4429632;28;661714;-71
2023/12/08 12:11:14;;;;;;;76.30;28.73;;;-0.30;99.90;;;;;;4427239;28;660854;-71
2023/12/08 12:14:02;;;;;;;80.20;25.67;;;-0.20;99.90;;;;;;4456123;27;660819;-70
2023/12/08 12:16:49;;;;;;;70.73;22.33;;;-0.40;99.90;;;;;;4434927;28;661081;-71
2023/12/08 12:19:37;;;;;;;68.33;22.87;;;-0.60;99.90;;;;;;4458041;27;661452;-71
2023/12/08 12:22:24;;;;;;;58.87;20.03;;;-0.60;99.90;;;;;;4437077;28;660911;-70
2023/12/08 12:25:11;;;;;;;73.90;25.27;;;-0.60;99.90;;;;;;4449750;28;661183;-71
2023/12/08 12:28:00;;;;;;;69.67;23.10;;;-0.60;99.90;;;;;;4432949;28;660590;-70
2023/12/08 12:30:49;;;;;;;75.37;25.07;;;-0.70;99.90;;;;;;4445327;28;660415;-70
2023/12/08 12:33:38;;;;;;;83.67;28.67;;;-0.90;99.90;;;;;;4451033;28;661126;-71
2023/12/08 12:36:26;;;;;;;75.27;24.13;;;-0.80;99.90;;;;;;4430984;28;661220;-70
2023/12/08 12:39:13;;;;;;;71.03;23.83;;;-0.80;99.90;;;;;;4433501;28;661007;-70
2023/12/08 12:42:00;;;;;;;81.30;27.60;;;-0.80;99.90;;;;;;4452528;28;661777;-70
2023/12/08 12:44:49;;;;;;;74.43;24.40;;;-0.70;99.90;;;;;;4437344;28;661338;-70
2023/12/08 12:47:36;;;;;;;64.63;21.20;;;-0.70;99.90;;;;;;4455650;28;661184;-70
2023/12/08 12:50:23;;;;;;;65.97;21.53;;;-0.80;99.90;;;;;;4430379;27;661401;-70
2023/12/08 12:53:10;;;;;;;44.43;16.67;;;-0.90;99.90;;;;;;4452294;28;661699;-70
2023/12/08 12:56:06;;;;;;;53.65;17.85;;;-1.10;99.90;;;;;;4428392;28;660471;-70
2023/12/08 12:59:04;;;;;;;59.83;20.20;;;-1.00;99.90;;;;;;4426247;28;661391;-70
2023/12/08 13:01:52;;;;;;;55.93;18.97;;;-1.20;99.90;;;;;;4437408;28;661306;-70
2023/12/08 13:04:39;;;;;;;53.10;17.53;;;-1.30;99.90;;;;;;4431271;28;661293;-70
2023/12/08 13:07:27;;;;;;;76.00;22.93;;;-1.40;99.90;;;;;;4452246;28;660940;-70
2023/12/08 13:10:14;;;;;;;71.37;24.17;;;-1.30;99.90;;;;;;4440311;28;661098;-70
2023/12/08 13:13:01;;;;;;;97.57;31.43;;;-1.30;99.90;;;;;;4453716;28;660798;-70
2023/12/08 13:15:48;;;;;;;31.47;9.97;;;-1.40;99.90;;;;;;4428498;28;660777;-70
2023/12/08 13:18:44;;;;;;;71.47;22.97;;;-1.40;99.90;;;;;;4458248;27;661176;-71
2023/12/08 13:21:31;;;;;;;48.57;15.70;;;-1.30;99.90;;;;;;4427882;28;660945;-70
2023/12/08 13:24:18;;;;;;;68.80;21.43;;;-1.40;99.90;;;;;;4433479;28;661233;-70
2023/12/08 13:27:06;;;;;;;66.15;21.27;;;-1.40;99.90;;;;;;4443367;28;661223;-70
2023/12/08 13:29:53;;;;;;;63.33;20.60;;;-1.50;99.90;;;;;;4432016;28;660835;-70
2023/12/08 13:32:40;;;;;;;70.80;25.35;;;-1.50;99.90;;;;;;4454548;28;661875;-70
2023/12/08 13:35:29;;;;;;;55.57;19.07;;;-1.60;99.90;;;;;;4433581;28;660953;-70
2023/12/08 13:38:16;;;;;;;62.17;21.20;;;-1.60;99.90;;;;;;4456504;28;660965;-70
2023/12/08 13:41:04;;;;;;;72.23;26.87;;;-1.60;99.90;;;;;;4434313;27;661372;-70
2023/12/08 13:43:51;;;;;;;61.10;22.33;;;-1.70;99.90;;;;;;4455563;27;660652;-70
2023/12/08 13:46:39;;;;;;;58.10;18.83;;;-1.70;99.90;;;;;;4434479;27;661753;-70
2023/12/08 13:49:26;;;;;;;43.33;15.50;;;-1.70;99.90;;;;;;4452532;28;660580;-70
2023/12/08 13:52:15;;;;;;;65.97;24.20;;;-1.80;99.90;;;;;;4430025;27;661046;-70